sensor_id;sensor_type;location;lat;lon;timestamp;pressure;altitude;pressure_sealevel;temperature;humidity
46534;BME280;32260;52.008;4.752;2023-01-29T00:01:30;103116.47;;;6.03;62.28
46534;BME280;32260;52.008;4.752;2023-01-29T00:03:57;103113.84;;;6.03;62.28
46534;BME280;32260;52.008;4.752;2023-01-29T00:06:23;103112.13;;;6.03;62.27
46534;BME280;32260;52.008;4.752;2023-01-29T00:08:49;103102.47;;;6.04;62.34
46534;BME280;32260;52.008;4.752;2023-01-29T00:11:16;103097.09;;;6.01;62.70
46534;BME280;32260;52.008;4.752;2023-01-29T00:13:43;103095.38;;;6.01;62.60
46534;BME280;32260;52.008;4.752;2023-01-29T00:16:09;103092.75;;;6.01;62.74
46534;BME280;32260;52.008;4.752;2023-01-29T00:18:39;103085.81;;;6.03;62.62
46534;BME280;32260;52.008;4.752;2023-01-29T00:21:09;103082.31;;;6.04;62.98
46534;BME280;32260;52.008;4.752;2023-01-29T00:23:35;103077.94;;;6.05;63.08
46534;BME280;32260;52.008;4.752;2023-01-29T00:26:01;103081.38;;;6.02;63.22
46534;BME280;32260;52.008;4.752;2023-01-29T00:28:27;103073.56;;;6.05;63.24
46534;BME280;32260;52.008;4.752;2023-01-29T00:30:53;103082.44;;;6.07;63.13
46534;BME280;32260;52.008;4.752;2023-01-29T00:33:19;103088.66;;;6.09;62.99
46534;BME280;32260;52.008;4.752;2023-01-29T00:35:46;103093.03;;;6.10;62.95
46534;BME280;32260;52.008;4.752;2023-01-29T00:38:12;103089.47;;;6.08;62.94
46534;BME280;32260;52.008;4.752;2023-01-29T00:40:38;103086.78;;;6.07;62.88
46534;BME280;32260;52.008;4.752;2023-01-29T00:43:24;103088.66;;;6.09;62.74
46534;BME280;32260;52.008;4.752;2023-01-29T00:46:11;103075.50;;;6.09;62.70
46534;BME280;32260;52.008;4.752;2023-01-29T00:48:37;103070.31;;;6.12;62.92
46534;BME280;32260;52.008;4.752;2023-01-29T00:51:03;103062.41;;;6.12;62.86
46534;BME280;32260;52.008;4.752;2023-01-29T00:53:30;103065.94;;;6.13;62.79
46534;BME280;32260;52.008;4.752;2023-01-29T00:55:56;103065.94;;;6.13;62.74
46534;BME280;32260;52.008;4.752;2023-01-29T00:58:22;103054.53;;;6.12;62.93
46534;BME280;32260;52.008;4.752;2023-01-29T01:00:53;103060.75;;;6.14;62.83
46534;BME280;32260;52.008;4.752;2023-01-29T01:03:19;103051.06;;;6.13;62.74
46534;BME280;32260;52.008;4.752;2023-01-29T01:05:46;103053.69;;;6.13;62.68
46534;BME280;32260;52.008;4.752;2023-01-29T01:08:13;103043.03;;;6.10;62.77
46534;BME280;32260;52.008;4.752;2023-01-29T01:11:01;103038.72;;;6.12;62.75
46534;BME280;32260;52.008;4.752;2023-01-29T01:13:29;103051.06;;;6.13;62.56
46534;BME280;32260;52.008;4.752;2023-01-29T01:15:56;103038.63;;;6.09;62.77
46534;BME280;32260;52.008;4.752;2023-01-29T01:18:22;103050.94;;;6.10;62.62
46534;BME280;32260;52.008;4.752;2023-01-29T01:20:48;103049.25;;;6.12;62.64
46534;BME280;32260;52.008;4.752;2023-01-29T01:23:17;103036.84;;;6.08;62.57
46534;BME280;32260;52.008;4.752;2023-01-29T01:25:44;103057.16;;;6.12;62.58
46534;BME280;32260;52.008;4.752;2023-01-29T01:28:11;103052.72;;;6.11;62.53
46534;BME280;32260;52.008;4.752;2023-01-29T01:30:37;103053.56;;;6.10;62.34
46534;BME280;32260;52.008;4.752;2023-01-29T01:33:03;103066.63;;;6.07;62.67
46534;BME280;32260;52.008;4.752;2023-01-29T01:35:29;103060.59;;;6.10;62.36
46534;BME280;32260;52.008;4.752;2023-01-29T01:37:55;103069.16;;;6.04;62.82
46534;BME280;32260;52.008;4.752;2023-01-29T01:40:24;103070.16;;;6.08;62.76
46534;BME280;32260;52.008;4.752;2023-01-29T01:42:54;103061.38;;;6.07;62.75
46534;BME280;32260;52.008;4.752;2023-01-29T01:45:32;103070.97;;;6.07;62.50
46534;BME280;32260;52.008;4.752;2023-01-29T01:50:53;103073.56;;;6.05;63.14
46534;BME280;32260;52.008;4.752;2023-01-29T01:53:30;103070.09;;;6.06;62.86
46534;BME280;32260;52.008;4.752;2023-01-29T01:56:02;103071.06;;;6.08;62.68
46534;BME280;32260;52.008;4.752;2023-01-29T01:58:34;103066.63;;;6.07;62.60
46534;BME280;32260;52.008;4.752;2023-01-29T02:01:03;103067.47;;;6.06;62.54
46534;BME280;32260;52.008;4.752;2023-01-29T02:03:32;103071.91;;;6.07;62.99
46534;BME280;32260;52.008;4.752;2023-01-29T02:06:20;103070.09;;;6.06;62.98
46534;BME280;32260;52.008;4.752;2023-01-29T02:09:15;103061.47;;;6.10;62.89
46534;BME280;32260;52.008;4.752;2023-01-29T02:12:07;103060.41;;;6.05;62.92
46534;BME280;32260;52.008;4.752;2023-01-29T02:14:36;103057.78;;;6.05;62.76
46534;BME280;32260;52.008;4.752;2023-01-29T02:17:05;103050.72;;;6.04;62.88
46534;BME280;32260;52.008;4.752;2023-01-29T02:23:40;103053.47;;;6.07;63.17
46534;BME280;32260;52.008;4.752;2023-01-29T02:27:05;103049.94;;;6.07;63.11
46534;BME280;32260;52.008;4.752;2023-01-29T02:29:04;103052.56;;;6.07;62.88
46534;BME280;32260;52.008;4.752;2023-01-29T02:32:12;103059.69;;;6.09;62.80
46534;BME280;32260;52.008;4.752;2023-01-29T02:34:51;103057.91;;;6.08;62.75
46534;BME280;32260;52.008;4.752;2023-01-29T02:37:48;103047.28;;;6.07;62.82
46534;BME280;32260;52.008;4.752;2023-01-29T02:43:40;103059.78;;;6.12;62.65
46534;BME280;32260;52.008;4.752;2023-01-29T02:46:20;103058.03;;;6.13;62.57
46534;BME280;32260;52.008;4.752;2023-01-29T02:51:33;103053.22;;;5.99;63.48
46534;BME280;32260;52.008;4.752;2023-01-29T02:56:57;103050.13;;;6.13;63.07
46534;BME280;32260;52.008;4.752;2023-01-29T02:59:31;103056.31;;;6.13;62.92
46534;BME280;32260;52.008;4.752;2023-01-29T03:02:04;103057.94;;;6.10;62.59
46534;BME280;32260;52.008;4.752;2023-01-29T03:04:38;103050.06;;;6.10;62.83
46534;BME280;32260;52.008;4.752;2023-01-29T03:07:12;103047.47;;;6.11;62.77
46534;BME280;32260;52.008;4.752;2023-01-29T03:09:58;103050.84;;;6.07;62.77
46534;BME280;32260;52.008;4.752;2023-01-29T03:12:28;103048.22;;;6.07;62.71
46534;BME280;32260;52.008;4.752;2023-01-29T03:15:02;103047.25;;;6.05;62.79
46534;BME280;32260;52.008;4.752;2023-01-29T03:17:51;103041.09;;;6.05;62.62
46534;BME280;32260;52.008;4.752;2023-01-29T03:20:23;103032.22;;;6.01;62.74
46534;BME280;32260;52.008;4.752;2023-01-29T03:22:57;103042.00;;;6.05;62.61
46534;BME280;32260;52.008;4.752;2023-01-29T03:25:27;103048.84;;;6.00;62.77
46534;BME280;32260;52.008;4.752;2023-01-29T03:28:17;103047.09;;;6.01;62.57
46534;BME280;32260;52.008;4.752;2023-01-29T03:31:08;103040.91;;;5.98;62.96
46534;BME280;32260;52.008;4.752;2023-01-29T03:34:10;103033.16;;;6.03;62.78
46534;BME280;32260;52.008;4.752;2023-01-29T03:36:46;103027.81;;;6.02;62.82
46534;BME280;32260;52.008;4.752;2023-01-29T03:39:16;103017.25;;;6.00;62.70
46534;BME280;32260;52.008;4.752;2023-01-29T03:41:52;103015.59;;;6.02;63.05
46534;BME280;32260;52.008;4.752;2023-01-29T03:44:34;103022.69;;;6.05;62.77
46534;BME280;32260;52.008;4.752;2023-01-29T03:47:19;103019.22;;;6.06;62.62
46534;BME280;32260;52.008;4.752;2023-01-29T03:49:58;103023.56;;;6.05;62.70
46534;BME280;32260;52.008;4.752;2023-01-29T03:52:55;103021.84;;;6.06;62.88
46534;BME280;32260;52.008;4.752;2023-01-29T03:56:00;103013.03;;;6.05;62.72
46534;BME280;32260;52.008;4.752;2023-01-29T04:04:10;103002.19;;;5.96;62.96
46534;BME280;32260;52.008;4.752;2023-01-29T04:06:42;102995.81;;;5.89;63.14
46534;BME280;32260;52.008;4.752;2023-01-29T04:09:30;103003.84;;;5.94;62.83
46534;BME280;32260;52.008;4.752;2023-01-29T04:12:03;103000.28;;;5.92;62.94
46534;BME280;32260;52.008;4.752;2023-01-29T04:14:32;102997.50;;;5.87;63.11
46534;BME280;32260;52.008;4.752;2023-01-29T04:17:02;102994.91;;;5.89;63.35
46534;BME280;32260;52.008;4.752;2023-01-29T04:19:33;102993.97;;;5.87;63.09
46534;BME280;32260;52.008;4.752;2023-01-29T04:22:06;102993.13;;;5.88;63.30
46534;BME280;32260;52.008;4.752;2023-01-29T04:24:35;102988.56;;;5.82;63.54
46534;BME280;32260;52.008;4.752;2023-01-29T04:30:19;102987.91;;;5.89;63.20
46534;BME280;32260;52.008;4.752;2023-01-29T04:33:10;102981.63;;;5.86;63.19
46534;BME280;32260;52.008;4.752;2023-01-29T04:41:21;102984.22;;;5.84;63.47
46534;BME280;32260;52.008;4.752;2023-01-29T04:46:32;102963.19;;;5.84;63.56
46534;BME280;32260;52.008;4.752;2023-01-29T04:49:11;102957.09;;;5.85;63.83
46534;BME280;32260;52.008;4.752;2023-01-29T04:52:00;102953.81;;;5.92;63.08
46534;BME280;32260;52.008;4.752;2023-01-29T04:59:57;102951.78;;;5.83;63.87
46534;BME280;32260;52.008;4.752;2023-01-29T05:02:26;102943.03;;;5.85;63.71
46534;BME280;32260;52.008;4.752;2023-01-29T05:04:54;102939.53;;;5.86;63.58
46534;BME280;32260;52.008;4.752;2023-01-29T05:07:21;102942.97;;;5.83;63.95
46534;BME280;32260;52.008;4.752;2023-01-29T05:09:49;102954.41;;;5.83;63.92
46534;BME280;32260;52.008;4.752;2023-01-29T05:12:16;102942.09;;;5.82;63.77
46534;BME280;32260;52.008;4.752;2023-01-29T05:14:44;102939.47;;;5.82;63.72
46534;BME280;32260;52.008;4.752;2023-01-29T05:17:17;102936.91;;;5.86;63.81
46534;BME280;32260;52.008;4.752;2023-01-29T05:19:45;102938.63;;;5.83;63.74
46534;BME280;32260;52.008;4.752;2023-01-29T05:22:14;102942.03;;;5.81;63.94
46534;BME280;32260;52.008;4.752;2023-01-29T05:24:41;102945.59;;;5.83;63.50
46534;BME280;32260;52.008;4.752;2023-01-29T05:27:18;102945.69;;;5.85;63.80
46534;BME280;32260;52.008;4.752;2023-01-29T05:30:05;102944.81;;;5.86;63.59
46534;BME280;32260;52.008;4.752;2023-01-29T05:32:32;102943.88;;;5.83;63.50
46534;BME280;32260;52.008;4.752;2023-01-29T05:34:58;102935.09;;;5.83;63.63
46534;BME280;32260;52.008;4.752;2023-01-29T05:37:25;102925.50;;;5.85;63.64
46534;BME280;32260;52.008;4.752;2023-01-29T05:39:51;102920.28;;;5.87;63.67
46534;BME280;32260;52.008;4.752;2023-01-29T05:42:17;102921.25;;;5.89;63.71
46534;BME280;32260;52.008;4.752;2023-01-29T05:44:43;102927.34;;;5.88;63.73
46534;BME280;32260;52.008;4.752;2023-01-29T05:47:09;102929.22;;;5.92;63.65
46534;BME280;32260;52.008;4.752;2023-01-29T05:49:35;102925.56;;;5.87;63.49
46534;BME280;32260;52.008;4.752;2023-01-29T05:52:01;102937.06;;;5.90;63.54
46534;BME280;32260;52.008;4.752;2023-01-29T05:54:27;102924.84;;;5.91;63.59
46534;BME280;32260;52.008;4.752;2023-01-29T05:56:53;102931.13;;;5.96;63.49
46534;BME280;32260;52.008;4.752;2023-01-29T05:59:19;102927.56;;;5.94;63.70
46534;BME280;32260;52.008;4.752;2023-01-29T06:01:45;102927.56;;;5.94;63.50
46534;BME280;32260;52.008;4.752;2023-01-29T06:04:11;102931.13;;;5.96;63.42
46534;BME280;32260;52.008;4.752;2023-01-29T06:06:37;102926.59;;;5.92;63.10
46534;BME280;32260;52.008;4.752;2023-01-29T06:09:03;102924.97;;;5.95;63.13
46534;BME280;32260;52.008;4.752;2023-01-29T06:11:30;102919.69;;;5.95;63.09
46534;BME280;32260;52.008;4.752;2023-01-29T06:13:56;102925.88;;;5.96;63.30
46534;BME280;32260;52.008;4.752;2023-01-29T06:16:22;102917.06;;;5.95;63.22
46534;BME280;32260;52.008;4.752;2023-01-29T06:18:48;102910.88;;;5.93;63.19
46534;BME280;32260;52.008;4.752;2023-01-29T06:21:15;102914.41;;;5.94;63.17
46534;BME280;32260;52.008;4.752;2023-01-29T06:23:41;102906.31;;;5.88;63.14
46534;BME280;32260;52.008;4.752;2023-01-29T06:26:11;102902.88;;;5.90;63.19
46534;BME280;32260;52.008;4.752;2023-01-29T06:28:37;102907.97;;;5.86;63.21
46534;BME280;32260;52.008;4.752;2023-01-29T06:31:05;102896.69;;;5.88;63.15
46534;BME280;32260;52.008;4.752;2023-01-29T06:33:31;102900.84;;;5.81;62.90
46534;BME280;32260;52.008;4.752;2023-01-29T06:35:59;102892.31;;;5.89;63.10
46534;BME280;32260;52.008;4.752;2023-01-29T06:38:26;102891.16;;;5.80;63.21
46534;BME280;32260;52.008;4.752;2023-01-29T06:40:53;102888.59;;;5.82;63.11
46534;BME280;32260;52.008;4.752;2023-01-29T06:43:19;102888.69;;;5.85;62.94
46534;BME280;32260;52.008;4.752;2023-01-29T06:45:55;102885.28;;;5.89;63.11
46534;BME280;32260;52.008;4.752;2023-01-29T06:48:22;102891.16;;;5.80;63.24
46534;BME280;32260;52.008;4.752;2023-01-29T06:50:50;102900.84;;;5.81;62.92
46534;BME280;32260;52.008;4.752;2023-01-29T06:53:17;102896.53;;;5.83;62.91
46534;BME280;32260;52.008;4.752;2023-01-29T06:55:49;102887.69;;;5.81;63.00
46534;BME280;32260;52.008;4.752;2023-01-29T06:58:15;102888.63;;;5.83;63.14
46534;BME280;32260;52.008;4.752;2023-01-29T07:00:41;102900.03;;;5.84;62.91
46534;BME280;32260;52.008;4.752;2023-01-29T07:03:09;102895.78;;;5.88;62.78
46534;BME280;32260;52.008;4.752;2023-01-29T07:05:36;102888.72;;;5.87;62.61
46534;BME280;32260;52.008;4.752;2023-01-29T07:08:02;102887.03;;;5.89;62.68
46534;BME280;32260;52.008;4.752;2023-01-29T07:10:28;102891.47;;;5.90;62.72
46534;BME280;32260;52.008;4.752;2023-01-29T07:12:54;102892.16;;;5.84;62.80
46534;BME280;32260;52.008;4.752;2023-01-29T07:15:20;102902.91;;;5.92;62.80
46534;BME280;32260;52.008;4.752;2023-01-29T07:18:03;102901.34;;;5.97;62.79
46534;BME280;32260;52.008;4.752;2023-01-29T07:20:37;102885.25;;;5.88;62.82
46534;BME280;32260;52.008;4.752;2023-01-29T07:23:03;102887.03;;;5.89;62.82
46534;BME280;32260;52.008;4.752;2023-01-29T07:25:30;102888.91;;;5.93;62.92
46534;BME280;32260;52.008;4.752;2023-01-29T07:28:00;102889.63;;;5.87;62.61
46534;BME280;32260;52.008;4.752;2023-01-29T07:30:26;102888.84;;;5.90;62.80
46534;BME280;32260;52.008;4.752;2023-01-29T07:32:52;102892.38;;;5.92;62.64
46534;BME280;32260;52.008;4.752;2023-01-29T07:35:18;102888.91;;;5.93;62.65
46534;BME280;32260;52.008;4.752;2023-01-29T07:37:47;102885.41;;;5.92;62.66
46534;BME280;32260;52.008;4.752;2023-01-29T07:40:14;102889.88;;;5.95;62.57
46534;BME280;32260;52.008;4.752;2023-01-29T07:42:40;102893.19;;;5.89;62.56
46534;BME280;32260;52.008;4.752;2023-01-29T07:45:09;102897.78;;;5.95;62.39
46534;BME280;32260;52.008;4.752;2023-01-29T07:47:35;102895.97;;;5.94;62.49
46534;BME280;32260;52.008;4.752;2023-01-29T07:50:02;102891.66;;;5.96;62.57
46534;BME280;32260;52.008;4.752;2023-01-29T07:52:30;102881.81;;;5.90;62.49
46534;BME280;32260;52.008;4.752;2023-01-29T07:54:57;102889.91;;;5.96;62.58
46534;BME280;32260;52.008;4.752;2023-01-29T07:57:23;102882.06;;;5.98;62.56
46534;BME280;32260;52.008;4.752;2023-01-29T07:59:55;102881.19;;;5.97;62.54
46534;BME280;32260;52.008;4.752;2023-01-29T08:02:21;102882.88;;;5.95;62.40
46534;BME280;32260;52.008;4.752;2023-01-29T08:04:47;102875.84;;;5.94;62.50
46534;BME280;32260;52.008;4.752;2023-01-29T08:07:13;102874.09;;;5.95;62.35
46534;BME280;32260;52.008;4.752;2023-01-29T08:09:39;102878.50;;;5.96;62.56
46534;BME280;32260;52.008;4.752;2023-01-29T08:12:05;102878.41;;;5.93;62.41
46534;BME280;32260;52.008;4.752;2023-01-29T08:14:32;102868.09;;;5.99;62.48
46534;BME280;32260;52.008;4.752;2023-01-29T08:16:58;102860.22;;;5.99;62.48
46534;BME280;32260;52.008;4.752;2023-01-29T08:19:24;102863.56;;;5.95;62.33
46534;BME280;32260;52.008;4.752;2023-01-29T08:21:50;102850.50;;;5.98;62.27
46534;BME280;32260;52.008;4.752;2023-01-29T08:24:16;102856.44;;;5.91;62.34
46534;BME280;32260;52.008;4.752;2023-01-29T08:26:42;102850.41;;;5.95;62.45
46534;BME280;32260;52.008;4.752;2023-01-29T08:29:09;102853.00;;;5.93;62.58
46534;BME280;32260;52.008;4.752;2023-01-29T08:31:36;102859.91;;;5.90;62.60
46534;BME280;32260;52.008;4.752;2023-01-29T08:34:02;102856.47;;;5.92;62.66
46534;BME280;32260;52.008;4.752;2023-01-29T08:36:28;102848.72;;;5.97;62.56
46534;BME280;32260;52.008;4.752;2023-01-29T08:38:54;102844.19;;;5.93;62.49
46534;BME280;32260;52.008;4.752;2023-01-29T08:41:20;102848.72;;;5.97;62.56
46534;BME280;32260;52.008;4.752;2023-01-29T08:43:46;102842.78;;;6.03;62.57
46534;BME280;32260;52.008;4.752;2023-01-29T08:46:12;102838.50;;;6.06;62.42
46534;BME280;32260;52.008;4.752;2023-01-29T08:48:39;102836.84;;;6.08;62.48
46534;BME280;32260;52.008;4.752;2023-01-29T08:51:05;102838.69;;;6.12;62.44
46534;BME280;32260;52.008;4.752;2023-01-29T08:53:32;102831.75;;;6.14;62.33
46534;BME280;32260;52.008;4.752;2023-01-29T08:55:58;102836.91;;;6.11;62.38
46534;BME280;32260;52.008;4.752;2023-01-29T08:58:24;102828.25;;;6.15;62.08
46534;BME280;32260;52.008;4.752;2023-01-29T09:00:50;102825.75;;;6.20;62.16
46534;BME280;32260;52.008;4.752;2023-01-29T09:03:16;102831.03;;;6.20;62.02
46534;BME280;32260;52.008;4.752;2023-01-29T09:05:42;102821.41;;;6.21;62.14
46534;BME280;32260;52.008;4.752;2023-01-29T09:08:09;102822.44;;;6.26;62.22
46534;BME280;32260;52.008;4.752;2023-01-29T09:10:35;102826.09;;;6.31;62.01
46534;BME280;32260;52.008;4.752;2023-01-29T09:13:01;102827.09;;;6.35;62.01
46534;BME280;32260;52.008;4.752;2023-01-29T09:15:28;102830.69;;;6.38;61.84
46534;BME280;32260;52.008;4.752;2023-01-29T09:17:54;102819.31;;;6.39;61.92
46534;BME280;32260;52.008;4.752;2023-01-29T09:20:20;102813.94;;;6.36;61.87
46534;BME280;32260;52.008;4.752;2023-01-29T09:22:47;102816.75;;;6.42;61.54
46534;BME280;32260;52.008;4.752;2023-01-29T09:25:14;102815.81;;;6.40;61.63
46534;BME280;32260;52.008;4.752;2023-01-29T09:27:40;102816.06;;;6.48;61.64
46534;BME280;32260;52.008;4.752;2023-01-29T09:30:06;102820.41;;;6.47;61.53
46534;BME280;32260;52.008;4.752;2023-01-29T09:32:34;102818.72;;;6.50;61.12
46534;BME280;32260;52.008;4.752;2023-01-29T09:35:05;102814.44;;;6.53;61.34
46534;BME280;32260;52.008;4.752;2023-01-29T09:37:31;102813.72;;;6.59;61.04
46534;BME280;32260;52.008;4.752;2023-01-29T09:39:57;102820.81;;;6.61;61.49
46534;BME280;32260;52.008;4.752;2023-01-29T09:42:43;102814.78;;;6.66;61.30
46534;BME280;32260;52.008;4.752;2023-01-29T09:45:15;102819.16;;;6.65;61.22
46534;BME280;32260;52.008;4.752;2023-01-29T09:47:45;102812.09;;;6.64;61.00
46534;BME280;32260;52.008;4.752;2023-01-29T09:55:32;102815.59;;;6.63;61.08
46534;BME280;32260;52.008;4.752;2023-01-29T09:58:11;102806.94;;;6.67;61.12
46534;BME280;32260;52.008;4.752;2023-01-29T10:00:47;102803.31;;;6.63;60.83
46534;BME280;32260;52.008;4.752;2023-01-29T10:16:33;102795.47;;;6.67;60.99
46534;BME280;32260;52.008;4.752;2023-01-29T10:18:39;102799.88;;;6.66;60.52
46534;BME280;32260;52.008;4.752;2023-01-29T10:21:40;102798.94;;;6.64;61.02
46534;BME280;32260;52.008;4.752;2023-01-29T10:26:51;102798.81;;;6.59;61.06
46534;BME280;32260;52.008;4.752;2023-01-29T10:29:19;102798.00;;;6.62;60.95
46534;BME280;32260;52.008;4.752;2023-01-29T10:31:51;102789.25;;;6.63;61.43
46534;BME280;32260;52.008;4.752;2023-01-29T10:34:32;102792.00;;;6.68;61.20
46534;BME280;32260;52.008;4.752;2023-01-29T10:37:05;102776.78;;;6.56;61.16
46534;BME280;32260;52.008;4.752;2023-01-29T10:39:38;102784.56;;;6.53;61.22
46534;BME280;32260;52.008;4.752;2023-01-29T10:50:30;102772.72;;;6.69;61.52
46534;BME280;32260;52.008;4.752;2023-01-29T11:01:03;102746.16;;;6.59;61.67
46534;BME280;32260;52.008;4.752;2023-01-29T11:03:31;102748.66;;;6.55;61.89
46534;BME280;32260;52.008;4.752;2023-01-29T11:08:45;102739.22;;;6.63;61.58
46534;BME280;32260;52.008;4.752;2023-01-29T11:11:17;102738.34;;;6.64;61.74
46534;BME280;32260;52.008;4.752;2023-01-29T11:13:54;102736.81;;;6.72;61.33
46534;BME280;32260;52.008;4.752;2023-01-29T11:16:22;102728.78;;;6.68;61.80
46534;BME280;32260;52.008;4.752;2023-01-29T11:18:52;102727.97;;;6.70;61.52
46534;BME280;32260;52.008;4.752;2023-01-29T11:21:19;102720.13;;;6.72;61.98
46534;BME280;32260;52.008;4.752;2023-01-29T11:23:45;102726.38;;;6.75;61.33
46534;BME280;32260;52.008;4.752;2023-01-29T11:26:16;102720.88;;;6.68;61.64
46534;BME280;32260;52.008;4.752;2023-01-29T11:28:48;102720.88;;;6.68;61.89
46534;BME280;32260;52.008;4.752;2023-01-29T11:31:16;102723.59;;;6.69;61.79
46534;BME280;32260;52.008;4.752;2023-01-29T11:33:43;102721.88;;;6.73;61.63
46534;BME280;32260;52.008;4.752;2023-01-29T11:36:33;102715.84;;;6.75;61.71
46534;BME280;32260;52.008;4.752;2023-01-29T11:39:20;102714.25;;;6.82;62.04
46534;BME280;32260;52.008;4.752;2023-01-29T11:44:40;102712.25;;;6.73;61.67
46534;BME280;32260;52.008;4.752;2023-01-29T11:47:25;102712.41;;;6.79;61.73
46534;BME280;32260;52.008;4.752;2023-01-29T11:49:58;102706.31;;;6.80;61.83
46534;BME280;32260;52.008;4.752;2023-01-29T11:52:37;102713.44;;;6.85;62.19
46534;BME280;32260;52.008;4.752;2023-01-29T11:55:15;102699.31;;;6.83;62.03
46534;BME280;32260;52.008;4.752;2023-01-29T11:57:47;102695.78;;;6.82;61.89
46534;BME280;32260;52.008;4.752;2023-01-29T12:03:23;102668.69;;;6.88;61.73
46534;BME280;32260;52.008;4.752;2023-01-29T12:05:59;102664.16;;;6.80;61.97
46534;BME280;32260;52.008;4.752;2023-01-29T12:08:34;102659.78;;;6.83;62.31
46534;BME280;32260;52.008;4.752;2023-01-29T12:13:53;102653.84;;;6.91;62.24
46534;BME280;32260;52.008;4.752;2023-01-29T12:17:12;102648.78;;;6.99;61.80
46534;BME280;32260;52.008;4.752;2023-01-29T12:19:33;102647.81;;;6.95;61.89
46534;BME280;32260;52.008;4.752;2023-01-29T12:22:10;102640.09;;;7.03;61.70
46534;BME280;32260;52.008;4.752;2023-01-29T12:27:53;102626.97;;;7.06;61.79
46534;BME280;32260;52.008;4.752;2023-01-29T12:35:42;102613.78;;;7.06;62.07
46534;BME280;32260;52.008;4.752;2023-01-29T12:38:19;102610.28;;;7.06;62.00
46534;BME280;32260;52.008;4.752;2023-01-29T12:41:23;102603.47;;;7.16;62.04
46534;BME280;32260;52.008;4.752;2023-01-29T12:43:39;102598.44;;;7.26;62.19
46534;BME280;32260;52.008;4.752;2023-01-29T12:46:16;102578.28;;;7.30;61.60
46534;BME280;32260;52.008;4.752;2023-01-29T12:48:45;102567.03;;;7.39;61.59
46534;BME280;32260;52.008;4.752;2023-01-29T12:51:15;102560.28;;;7.50;61.71
46534;BME280;32260;52.008;4.752;2023-01-29T12:54:20;102553.25;;;7.51;61.49
46534;BME280;32260;52.008;4.752;2023-01-29T12:56:55;102547.25;;;7.59;60.98
46534;BME280;32260;52.008;4.752;2023-01-29T13:02:23;102540.22;;;7.60;60.86
46534;BME280;32260;52.008;4.752;2023-01-29T13:05:01;102538.38;;;7.56;60.60
46534;BME280;32260;52.008;4.752;2023-01-29T13:07:33;102532.25;;;7.55;61.18
46534;BME280;32260;52.008;4.752;2023-01-29T13:10:13;102519.81;;;7.50;61.36
46534;BME280;32260;52.008;4.752;2023-01-29T13:12:48;102512.13;;;7.62;60.84
46534;BME280;32260;52.008;4.752;2023-01-29T13:17:57;102502.38;;;7.58;61.14
46534;BME280;32260;52.008;4.752;2023-01-29T13:20:31;102512.13;;;7.62;60.92
46534;BME280;32260;52.008;4.752;2023-01-29T13:23:10;102489.22;;;7.59;60.75
46534;BME280;32260;52.008;4.752;2023-01-29T13:25:40;102488.22;;;7.53;60.55
46534;BME280;32260;52.008;4.752;2023-01-29T13:28:15;102476.91;;;7.60;60.18
46534;BME280;32260;52.008;4.752;2023-01-29T13:30:43;102479.41;;;7.52;59.93
46534;BME280;32260;52.008;4.752;2023-01-29T13:33:20;102487.41;;;7.57;60.46
46534;BME280;32260;52.008;4.752;2023-01-29T13:35:48;102476.75;;;7.51;60.25
46534;BME280;32260;52.008;4.752;2023-01-29T13:38:27;102469.81;;;7.56;60.45
46534;BME280;32260;52.008;4.752;2023-01-29T13:41:00;102465.47;;;7.58;60.40
46534;BME280;32260;52.008;4.752;2023-01-29T13:43:27;102466.25;;;7.54;60.67
46534;BME280;32260;52.008;4.752;2023-01-29T13:45:58;102457.53;;;7.58;59.93
46534;BME280;32260;52.008;4.752;2023-01-29T13:48:31;102445.19;;;7.55;60.19
46534;BME280;32260;52.008;4.752;2023-01-29T13:51:02;102444.50;;;7.66;60.14
46534;BME280;32260;52.008;4.752;2023-01-29T13:53:41;102450.72;;;7.69;60.30
46534;BME280;32260;52.008;4.752;2023-01-29T13:59:22;102455.28;;;7.80;60.36
46534;BME280;32260;52.008;4.752;2023-01-29T14:04:27;102436.78;;;7.76;60.49
46534;BME280;32260;52.008;4.752;2023-01-29T14:06:56;102443.00;;;7.80;60.44
46534;BME280;32260;52.008;4.752;2023-01-29T14:12:35;102433.34;;;7.84;60.48
46534;BME280;32260;52.008;4.752;2023-01-29T14:15:14;102428.03;;;7.81;60.64
46534;BME280;32260;52.008;4.752;2023-01-29T14:17:58;102433.34;;;7.84;60.37
46534;BME280;32260;52.008;4.752;2023-01-29T14:20:32;102419.19;;;7.78;60.45
46534;BME280;32260;52.008;4.752;2023-01-29T14:23:00;102417.41;;;7.77;60.29
46534;BME280;32260;52.008;4.752;2023-01-29T14:25:36;102416.63;;;7.82;60.98
46534;BME280;32260;52.008;4.752;2023-01-29T14:28:04;102420.13;;;7.82;60.49
46534;BME280;32260;52.008;4.752;2023-01-29T14:30:39;102415.66;;;7.76;60.77
46534;BME280;32260;52.008;4.752;2023-01-29T14:33:24;102409.47;;;7.76;60.82
46534;BME280;32260;52.008;4.752;2023-01-29T14:35:52;102419.97;;;7.71;60.48
46534;BME280;32260;52.008;4.752;2023-01-29T14:38:22;102407.56;;;7.66;61.40
46534;BME280;32260;52.008;4.752;2023-01-29T14:41:04;102419.16;;;7.75;60.68
46534;BME280;32260;52.008;4.752;2023-01-29T14:43:32;102412.91;;;7.70;61.40
46534;BME280;32260;52.008;4.752;2023-01-29T14:49:11;102400.38;;;7.58;61.27
46534;BME280;32260;52.008;4.752;2023-01-29T14:52:01;102396.88;;;7.58;61.29
46534;BME280;32260;52.008;4.752;2023-01-29T14:54:28;102398.50;;;7.51;61.57
46534;BME280;32260;52.008;4.752;2023-01-29T14:57:01;102405.50;;;7.49;61.57
46534;BME280;32260;52.008;4.752;2023-01-29T14:59:37;102403.66;;;7.45;61.67
46534;BME280;32260;52.008;4.752;2023-01-29T15:02:19;102392.22;;;7.43;61.82
46534;BME280;32260;52.008;4.752;2023-01-29T15:04:49;102383.41;;;7.42;61.69
46534;BME280;32260;52.008;4.752;2023-01-29T15:07:43;102388.66;;;7.42;62.45
46534;BME280;32260;52.008;4.752;2023-01-29T15:13:03;102394.66;;;7.34;62.40
46534;BME280;32260;52.008;4.752;2023-01-29T15:18:15;102381.00;;;7.07;63.72
46534;BME280;32260;52.008;4.752;2023-01-29T15:20:46;102383.03;;;7.21;63.32
46534;BME280;32260;52.008;4.752;2023-01-29T15:23:30;102379.44;;;7.17;63.49